sensor_id;sensor_type;location;lat;lon;timestamp;P1;durP1;ratioP1;P2;durP2;ratioP2
3625;SDS011;1827;50.534;8.316;2023-02-15T00:01:50;117.40;;;34.27;;
3625;SDS011;1827;50.534;8.316;2023-02-15T00:04:20;119.73;;;32.47;;
3625;SDS011;1827;50.534;8.316;2023-02-15T00:06:47;141.87;;;33.17;;
3625;SDS011;1827;50.534;8.316;2023-02-15T00:09:12;118.97;;;31.73;;
3625;SDS011;1827;50.534;8.316;2023-02-15T00:11:40;159.33;;;31.83;;
3625;SDS011;1827;50.534;8.316;2023-02-15T00:14:14;136.20;;;30.87;;
3625;SDS011;1827;50.534;8.316;2023-02-15T00:16:43;135.53;;;30.87;;
3625;SDS011;1827;50.534;8.316;2023-02-15T00:19:11;116.03;;;30.07;;
3625;SDS011;1827;50.534;8.316;2023-02-15T00:21:38;127.70;;;30.43;;
3625;SDS011;1827;50.534;8.316;2023-02-15T00:24:05;117.83;;;30.23;;
3625;SDS011;1827;50.534;8.316;2023-02-15T00:26:33;119.73;;;29.90;;
3625;SDS011;1827;50.534;8.316;2023-02-15T00:28:59;130.60;;;29.00;;
3625;SDS011;1827;50.534;8.316;2023-02-15T00:31:27;123.30;;;30.13;;
3625;SDS011;1827;50.534;8.316;2023-02-15T00:34:01;110.80;;;30.00;;
3625;SDS011;1827;50.534;8.316;2023-02-15T00:36:34;108.80;;;29.00;;
3625;SDS011;1827;50.534;8.316;2023-02-15T00:39:01;141.50;;;28.80;;
3625;SDS011;1827;50.534;8.316;2023-02-15T00:41:30;94.00;;;28.40;;
3625;SDS011;1827;50.534;8.316;2023-02-15T00:43:58;89.80;;;27.10;;
3625;SDS011;1827;50.534;8.316;2023-02-15T00:46:25;118.17;;;26.93;;
3625;SDS011;1827;50.534;8.316;2023-02-15T00:48:53;131.13;;;27.87;;
3625;SDS011;1827;50.534;8.316;2023-02-15T00:51:19;187.20;;;27.90;;
3625;SDS011;1827;50.534;8.316;2023-02-15T00:53:47;124.23;;;28.57;;
3625;SDS011;1827;50.534;8.316;2023-02-15T00:56:14;131.80;;;28.50;;
3625;SDS011;1827;50.534;8.316;2023-02-15T00:58:40;108.03;;;26.87;;
3625;SDS011;1827;50.534;8.316;2023-02-15T01:01:12;152.43;;;27.90;;
3625;SDS011;1827;50.534;8.316;2023-02-15T01:03:40;101.03;;;26.90;;
3625;SDS011;1827;50.534;8.316;2023-02-15T01:06:09;135.60;;;27.40;;
3625;SDS011;1827;50.534;8.316;2023-02-15T01:08:37;113.50;;;28.47;;
3625;SDS011;1827;50.534;8.316;2023-02-15T01:11:08;104.50;;;25.23;;
3625;SDS011;1827;50.534;8.316;2023-02-15T01:13:38;104.03;;;26.77;;
3625;SDS011;1827;50.534;8.316;2023-02-15T01:16:04;125.73;;;27.43;;
3625;SDS011;1827;50.534;8.316;2023-02-15T01:18:34;101.00;;;28.80;;
3625;SDS011;1827;50.534;8.316;2023-02-15T01:21:08;104.17;;;24.70;;
3625;SDS011;1827;50.534;8.316;2023-02-15T01:23:39;97.43;;;25.33;;
3625;SDS011;1827;50.534;8.316;2023-02-15T01:26:06;125.70;;;27.80;;
3625;SDS011;1827;50.534;8.316;2023-02-15T01:28:33;92.77;;;26.53;;
3625;SDS011;1827;50.534;8.316;2023-02-15T01:31:04;95.77;;;24.27;;
3625;SDS011;1827;50.534;8.316;2023-02-15T01:33:34;125.73;;;24.60;;
3625;SDS011;1827;50.534;8.316;2023-02-15T01:36:01;109.37;;;26.20;;
3625;SDS011;1827;50.534;8.316;2023-02-15T01:38:27;86.27;;;22.07;;
3625;SDS011;1827;50.534;8.316;2023-02-15T01:40:54;92.13;;;24.30;;
3625;SDS011;1827;50.534;8.316;2023-02-15T01:43:47;118.67;;;23.50;;
3625;SDS011;1827;50.534;8.316;2023-02-15T01:46:23;102.93;;;24.13;;
3625;SDS011;1827;50.534;8.316;2023-02-15T01:48:55;81.17;;;23.47;;
3625;SDS011;1827;50.534;8.316;2023-02-15T01:51:31;75.43;;;23.10;;
3625;SDS011;1827;50.534;8.316;2023-02-15T01:54:09;96.10;;;24.07;;
3625;SDS011;1827;50.534;8.316;2023-02-15T01:56:44;100.00;;;24.93;;
3625;SDS011;1827;50.534;8.316;2023-02-15T01:59:13;122.40;;;23.23;;
3625;SDS011;1827;50.534;8.316;2023-02-15T02:01:45;87.60;;;23.77;;
3625;SDS011;1827;50.534;8.316;2023-02-15T02:04:18;138.53;;;24.40;;
3625;SDS011;1827;50.534;8.316;2023-02-15T02:06:52;99.03;;;26.00;;
3625;SDS011;1827;50.534;8.316;2023-02-15T02:09:20;114.47;;;24.47;;
3625;SDS011;1827;50.534;8.316;2023-02-15T02:11:46;102.37;;;24.23;;
3625;SDS011;1827;50.534;8.316;2023-02-15T02:14:13;102.70;;;24.87;;
3625;SDS011;1827;50.534;8.316;2023-02-15T02:17:02;134.83;;;25.17;;
3625;SDS011;1827;50.534;8.316;2023-02-15T02:27:56;115.30;;;25.60;;
3625;SDS011;1827;50.534;8.316;2023-02-15T02:31:39;116.30;;;25.90;;
3625;SDS011;1827;50.534;8.316;2023-02-15T02:36:40;113.77;;;27.63;;
3625;SDS011;1827;50.534;8.316;2023-02-15T02:44:42;87.20;;;23.60;;
3625;SDS011;1827;50.534;8.316;2023-02-15T02:47:24;83.30;;;22.13;;
3625;SDS011;1827;50.534;8.316;2023-02-15T02:50:06;81.73;;;24.07;;
3625;SDS011;1827;50.534;8.316;2023-02-15T02:55:30;93.00;;;24.33;;
3625;SDS011;1827;50.534;8.316;2023-02-15T03:00:42;95.07;;;25.60;;
3625;SDS011;1827;50.534;8.316;2023-02-15T03:03:22;95.13;;;22.33;;
3625;SDS011;1827;50.534;8.316;2023-02-15T03:06:06;109.50;;;23.90;;
3625;SDS011;1827;50.534;8.316;2023-02-15T03:08:37;93.10;;;24.47;;
3625;SDS011;1827;50.534;8.316;2023-02-15T03:11:07;95.63;;;23.17;;
3625;SDS011;1827;50.534;8.316;2023-02-15T03:13:39;95.70;;;24.53;;
3625;SDS011;1827;50.534;8.316;2023-02-15T03:16:10;87.37;;;22.37;;
3625;SDS011;1827;50.534;8.316;2023-02-15T03:18:54;87.40;;;24.53;;
3625;SDS011;1827;50.534;8.316;2023-02-15T03:21:41;75.67;;;22.77;;
3625;SDS011;1827;50.534;8.316;2023-02-15T03:24:17;77.33;;;22.80;;
3625;SDS011;1827;50.534;8.316;2023-02-15T03:26:48;72.77;;;20.20;;
3625;SDS011;1827;50.534;8.316;2023-02-15T03:29:20;72.87;;;21.63;;
3625;SDS011;1827;50.534;8.316;2023-02-15T03:31:52;70.30;;;21.67;;
3625;SDS011;1827;50.534;8.316;2023-02-15T03:34:30;82.97;;;21.23;;
3625;SDS011;1827;50.534;8.316;2023-02-15T03:37:04;69.80;;;22.70;;
3625;SDS011;1827;50.534;8.316;2023-02-15T03:42:09;76.53;;;20.60;;
3625;SDS011;1827;50.534;8.316;2023-02-15T03:44:49;96.67;;;22.70;;
3625;SDS011;1827;50.534;8.316;2023-02-15T03:47:25;93.30;;;24.27;;
3625;SDS011;1827;50.534;8.316;2023-02-15T03:50:08;87.67;;;22.53;;
3625;SDS011;1827;50.534;8.316;2023-02-15T03:52:58;79.27;;;22.20;;
3625;SDS011;1827;50.534;8.316;2023-02-15T03:55:28;79.30;;;22.57;;
3625;SDS011;1827;50.534;8.316;2023-02-15T03:58:00;81.83;;;23.40;;
3625;SDS011;1827;50.534;8.316;2023-02-15T04:00:49;74.13;;;22.47;;
3625;SDS011;1827;50.534;8.316;2023-02-15T04:04:07;70.23;;;19.90;;
3625;SDS011;1827;50.534;8.316;2023-02-15T04:06:44;63.80;;;20.10;;
3625;SDS011;1827;50.534;8.316;2023-02-15T04:09:11;70.87;;;22.33;;
3625;SDS011;1827;50.534;8.316;2023-02-15T04:11:58;60.47;;;19.93;;
3625;SDS011;1827;50.534;8.316;2023-02-15T04:14:24;69.00;;;21.60;;
3625;SDS011;1827;50.534;8.316;2023-02-15T04:17:10;66.90;;;21.27;;
3625;SDS011;1827;50.534;8.316;2023-02-15T04:19:38;68.97;;;20.90;;
3625;SDS011;1827;50.534;8.316;2023-02-15T04:22:24;61.90;;;20.73;;
3625;SDS011;1827;50.534;8.316;2023-02-15T04:25:10;71.57;;;23.70;;
3625;SDS011;1827;50.534;8.316;2023-02-15T04:27:47;68.67;;;22.60;;
3625;SDS011;1827;50.534;8.316;2023-02-15T04:30:19;73.57;;;22.60;;
3625;SDS011;1827;50.534;8.316;2023-02-15T04:32:48;71.73;;;22.60;;
3625;SDS011;1827;50.534;8.316;2023-02-15T04:35:16;64.03;;;20.70;;
3625;SDS011;1827;50.534;8.316;2023-02-15T04:37:43;78.63;;;21.67;;
3625;SDS011;1827;50.534;8.316;2023-02-15T04:40:15;77.07;;;20.40;;
3625;SDS011;1827;50.534;8.316;2023-02-15T04:42:43;78.37;;;23.20;;
3625;SDS011;1827;50.534;8.316;2023-02-15T04:45:09;70.03;;;21.30;;
3625;SDS011;1827;50.534;8.316;2023-02-15T04:47:36;61.20;;;19.90;;
3625;SDS011;1827;50.534;8.316;2023-02-15T04:50:04;67.67;;;21.30;;
3625;SDS011;1827;50.534;8.316;2023-02-15T04:52:31;73.87;;;22.30;;
3625;SDS011;1827;50.534;8.316;2023-02-15T04:54:57;71.67;;;20.87;;
3625;SDS011;1827;50.534;8.316;2023-02-15T04:57:23;82.87;;;20.30;;
3625;SDS011;1827;50.534;8.316;2023-02-15T04:59:49;63.53;;;21.60;;
3625;SDS011;1827;50.534;8.316;2023-02-15T05:02:15;61.43;;;19.87;;
3625;SDS011;1827;50.534;8.316;2023-02-15T05:04:41;66.03;;;20.90;;
3625;SDS011;1827;50.534;8.316;2023-02-15T05:07:06;59.33;;;19.30;;
3625;SDS011;1827;50.534;8.316;2023-02-15T05:09:33;65.43;;;21.20;;
3625;SDS011;1827;50.534;8.316;2023-02-15T05:11:59;69.97;;;20.03;;
3625;SDS011;1827;50.534;8.316;2023-02-15T05:14:24;66.77;;;19.97;;
3625;SDS011;1827;50.534;8.316;2023-02-15T05:16:52;89.20;;;19.20;;
3625;SDS011;1827;50.534;8.316;2023-02-15T05:19:21;64.83;;;19.80;;
3625;SDS011;1827;50.534;8.316;2023-02-15T05:21:51;59.83;;;19.60;;
3625;SDS011;1827;50.534;8.316;2023-02-15T05:24:16;61.77;;;17.93;;
3625;SDS011;1827;50.534;8.316;2023-02-15T05:27:01;77.87;;;21.53;;
3625;SDS011;1827;50.534;8.316;2023-02-15T05:29:45;60.70;;;18.90;;
3625;SDS011;1827;50.534;8.316;2023-02-15T05:32:12;85.87;;;23.03;;
3625;SDS011;1827;50.534;8.316;2023-02-15T05:34:39;71.47;;;19.30;;
3625;SDS011;1827;50.534;8.316;2023-02-15T05:37:05;91.60;;;19.80;;
3625;SDS011;1827;50.534;8.316;2023-02-15T05:39:32;70.27;;;21.53;;
3625;SDS011;1827;50.534;8.316;2023-02-15T05:41:59;72.47;;;19.50;;
3625;SDS011;1827;50.534;8.316;2023-02-15T05:44:25;74.20;;;20.50;;
3625;SDS011;1827;50.534;8.316;2023-02-15T05:46:52;64.30;;;19.83;;
3625;SDS011;1827;50.534;8.316;2023-02-15T05:49:17;69.87;;;19.43;;
3625;SDS011;1827;50.534;8.316;2023-02-15T05:51:44;66.17;;;21.03;;
3625;SDS011;1827;50.534;8.316;2023-02-15T05:54:13;69.70;;;20.53;;
3625;SDS011;1827;50.534;8.316;2023-02-15T05:56:39;63.53;;;20.90;;
3625;SDS011;1827;50.534;8.316;2023-02-15T05:59:04;65.70;;;19.20;;
3625;SDS011;1827;50.534;8.316;2023-02-15T06:01:30;60.33;;;19.80;;
3625;SDS011;1827;50.534;8.316;2023-02-15T06:03:56;63.17;;;20.00;;
3625;SDS011;1827;50.534;8.316;2023-02-15T06:06:23;60.90;;;19.43;;
3625;SDS011;1827;50.534;8.316;2023-02-15T06:08:49;79.57;;;19.77;;
3625;SDS011;1827;50.534;8.316;2023-02-15T06:11:16;68.17;;;19.20;;
3625;SDS011;1827;50.534;8.316;2023-02-15T06:13:41;68.30;;;21.30;;
3625;SDS011;1827;50.534;8.316;2023-02-15T06:16:08;66.33;;;20.23;;
3625;SDS011;1827;50.534;8.316;2023-02-15T06:18:37;64.73;;;19.37;;
3625;SDS011;1827;50.534;8.316;2023-02-15T06:21:05;65.33;;;18.87;;
3625;SDS011;1827;50.534;8.316;2023-02-15T06:23:37;60.57;;;19.37;;
3625;SDS011;1827;50.534;8.316;2023-02-15T06:26:03;59.50;;;21.17;;
3625;SDS011;1827;50.534;8.316;2023-02-15T06:28:30;63.40;;;19.83;;
3625;SDS011;1827;50.534;8.316;2023-02-15T06:30:56;84.67;;;22.40;;
3625;SDS011;1827;50.534;8.316;2023-02-15T06:33:22;63.37;;;19.43;;
3625;SDS011;1827;50.534;8.316;2023-02-15T06:35:47;62.97;;;19.10;;
3625;SDS011;1827;50.534;8.316;2023-02-15T06:38:14;63.77;;;20.73;;
3625;SDS011;1827;50.534;8.316;2023-02-15T06:40:39;72.07;;;19.90;;
3625;SDS011;1827;50.534;8.316;2023-02-15T06:43:05;63.97;;;20.23;;
3625;SDS011;1827;50.534;8.316;2023-02-15T06:45:31;61.70;;;20.90;;
3625;SDS011;1827;50.534;8.316;2023-02-15T06:47:58;67.00;;;21.57;;
3625;SDS011;1827;50.534;8.316;2023-02-15T06:50:25;70.27;;;22.30;;
3625;SDS011;1827;50.534;8.316;2023-02-15T06:52:55;62.83;;;21.20;;
3625;SDS011;1827;50.534;8.316;2023-02-15T06:55:24;61.53;;;20.83;;
3625;SDS011;1827;50.534;8.316;2023-02-15T06:57:50;62.50;;;21.37;;
3625;SDS011;1827;50.534;8.316;2023-02-15T07:00:19;62.07;;;20.70;;
3625;SDS011;1827;50.534;8.316;2023-02-15T07:02:52;57.77;;;19.97;;
3625;SDS011;1827;50.534;8.316;2023-02-15T07:05:27;56.27;;;19.60;;
3625;SDS011;1827;50.534;8.316;2023-02-15T07:07:57;52.80;;;19.07;;
3625;SDS011;1827;50.534;8.316;2023-02-15T07:10:28;55.13;;;20.47;;
3625;SDS011;1827;50.534;8.316;2023-02-15T07:12:54;56.57;;;20.70;;
3625;SDS011;1827;50.534;8.316;2023-02-15T07:15:20;56.20;;;18.53;;
3625;SDS011;1827;50.534;8.316;2023-02-15T07:17:47;63.17;;;21.00;;
3625;SDS011;1827;50.534;8.316;2023-02-15T07:20:18;59.23;;;20.30;;
3625;SDS011;1827;50.534;8.316;2023-02-15T07:22:49;56.23;;;20.20;;
3625;SDS011;1827;50.534;8.316;2023-02-15T07:25:16;63.33;;;19.70;;
3625;SDS011;1827;50.534;8.316;2023-02-15T07:27:43;59.73;;;20.13;;
3625;SDS011;1827;50.534;8.316;2023-02-15T07:30:13;57.20;;;19.10;;
3625;SDS011;1827;50.534;8.316;2023-02-15T07:32:46;60.50;;;20.33;;
3625;SDS011;1827;50.534;8.316;2023-02-15T07:35:34;52.33;;;18.17;;
3625;SDS011;1827;50.534;8.316;2023-02-15T07:38:00;59.80;;;19.63;;
3625;SDS011;1827;50.534;8.316;2023-02-15T07:40:30;48.83;;;18.30;;
3625;SDS011;1827;50.534;8.316;2023-02-15T07:42:58;53.93;;;18.80;;
3625;SDS011;1827;50.534;8.316;2023-02-15T07:45:26;45.97;;;17.00;;
3625;SDS011;1827;50.534;8.316;2023-02-15T07:47:52;47.70;;;17.70;;
3625;SDS011;1827;50.534;8.316;2023-02-15T07:50:17;47.70;;;17.53;;
3625;SDS011;1827;50.534;8.316;2023-02-15T07:52:43;49.87;;;17.17;;
3625;SDS011;1827;50.534;8.316;2023-02-15T07:55:09;46.93;;;18.07;;
3625;SDS011;1827;50.534;8.316;2023-02-15T07:57:41;45.37;;;17.00;;
3625;SDS011;1827;50.534;8.316;2023-02-15T08:00:16;47.73;;;17.17;;
3625;SDS011;1827;50.534;8.316;2023-02-15T08:02:53;45.90;;;16.70;;
3625;SDS011;1827;50.534;8.316;2023-02-15T08:05:42;53.17;;;19.13;;
3625;SDS011;1827;50.534;8.316;2023-02-15T08:08:10;50.47;;;17.30;;
3625;SDS011;1827;50.534;8.316;2023-02-15T08:10:58;54.90;;;17.90;;
3625;SDS011;1827;50.534;8.316;2023-02-15T08:13:47;47.67;;;17.43;;
3625;SDS011;1827;50.534;8.316;2023-02-15T08:18:51;53.10;;;18.57;;
3625;SDS011;1827;50.534;8.316;2023-02-15T08:21:19;52.50;;;18.43;;
3625;SDS011;1827;50.534;8.316;2023-02-15T08:23:46;50.37;;;18.87;;
3625;SDS011;1827;50.534;8.316;2023-02-15T08:26:15;50.20;;;18.57;;
3625;SDS011;1827;50.534;8.316;2023-02-15T08:28:43;47.63;;;16.87;;
3625;SDS011;1827;50.534;8.316;2023-02-15T08:31:10;50.70;;;17.37;;
3625;SDS011;1827;50.534;8.316;2023-02-15T08:33:39;43.90;;;16.90;;
3625;SDS011;1827;50.534;8.316;2023-02-15T08:36:11;47.03;;;17.10;;
3625;SDS011;1827;50.534;8.316;2023-02-15T08:38:41;47.50;;;17.40;;
3625;SDS011;1827;50.534;8.316;2023-02-15T08:43:45;47.17;;;18.07;;
3625;SDS011;1827;50.534;8.316;2023-02-15T08:46:17;44.93;;;15.93;;
3625;SDS011;1827;50.534;8.316;2023-02-15T08:48:47;47.27;;;17.30;;
3625;SDS011;1827;50.534;8.316;2023-02-15T08:51:22;42.43;;;16.50;;
3625;SDS011;1827;50.534;8.316;2023-02-15T08:53:53;45.53;;;17.30;;
3625;SDS011;1827;50.534;8.316;2023-02-15T08:56:24;48.50;;;17.47;;
3625;SDS011;1827;50.534;8.316;2023-02-15T08:58:57;42.83;;;15.70;;
3625;SDS011;1827;50.534;8.316;2023-02-15T09:01:26;44.17;;;16.87;;
3625;SDS011;1827;50.534;8.316;2023-02-15T09:03:57;41.57;;;16.80;;
3625;SDS011;1827;50.534;8.316;2023-02-15T09:06:27;45.87;;;18.20;;
3625;SDS011;1827;50.534;8.316;2023-02-15T09:08:58;42.20;;;16.73;;
3625;SDS011;1827;50.534;8.316;2023-02-15T09:11:27;47.13;;;17.33;;
3625;SDS011;1827;50.534;8.316;2023-02-15T09:13:58;48.43;;;18.80;;
3625;SDS011;1827;50.534;8.316;2023-02-15T09:16:28;53.07;;;19.80;;
3625;SDS011;1827;50.534;8.316;2023-02-15T09:18:58;47.90;;;17.97;;
3625;SDS011;1827;50.534;8.316;2023-02-15T09:21:28;46.37;;;16.97;;
3625;SDS011;1827;50.534;8.316;2023-02-15T09:23:56;43.37;;;17.13;;
3625;SDS011;1827;50.534;8.316;2023-02-15T09:26:24;45.97;;;17.07;;
3625;SDS011;1827;50.534;8.316;2023-02-15T09:28:52;55.60;;;21.47;;
3625;SDS011;1827;50.534;8.316;2023-02-15T09:31:22;43.80;;;18.50;;
3625;SDS011;1827;50.534;8.316;2023-02-15T09:33:53;42.10;;;17.00;;
3625;SDS011;1827;50.534;8.316;2023-02-15T09:36:23;47.60;;;18.90;;
3625;SDS011;1827;50.534;8.316;2023-02-15T09:38:58;44.43;;;17.70;;
3625;SDS011;1827;50.534;8.316;2023-02-15T09:50:12;41.10;;;17.10;;
3625;SDS011;1827;50.534;8.316;2023-02-15T10:15:04;45.97;;;18.00;;
3625;SDS011;1827;50.534;8.316;2023-02-15T10:28:39;52.37;;;18.87;;
3625;SDS011;1827;50.534;8.316;2023-02-15T10:34:01;44.97;;;17.60;;
3625;SDS011;1827;50.534;8.316;2023-02-15T10:36:37;46.73;;;19.20;;
3625;SDS011;1827;50.534;8.316;2023-02-15T10:47:43;46.73;;;18.57;;
3625;SDS011;1827;50.534;8.316;2023-02-15T10:58:47;44.67;;;18.40;;
3625;SDS011;1827;50.534;8.316;2023-02-15T11:01:37;64.07;;;26.03;;
3625;SDS011;1827;50.534;8.316;2023-02-15T11:07:17;43.40;;;18.33;;
3625;SDS011;1827;50.534;8.316;2023-02-15T11:10:01;46.20;;;17.77;;
3625;SDS011;1827;50.534;8.316;2023-02-15T11:12:49;45.97;;;19.10;;
3625;SDS011;1827;50.534;8.316;2023-02-15T11:18:00;44.90;;;18.73;;
3625;SDS011;1827;50.534;8.316;2023-02-15T11:23:25;46.43;;;19.13;;
3625;SDS011;1827;50.534;8.316;2023-02-15T11:25:59;46.67;;;18.50;;
3625;SDS011;1827;50.534;8.316;2023-02-15T11:28:41;42.13;;;17.90;;
3625;SDS011;1827;50.534;8.316;2023-02-15T11:31:35;41.73;;;16.67;;
3625;SDS011;1827;50.534;8.316;2023-02-15T11:34:49;44.23;;;17.00;;
3625;SDS011;1827;50.534;8.316;2023-02-15T11:37:35;42.80;;;17.53;;
3625;SDS011;1827;50.534;8.316;2023-02-15T11:40:32;46.13;;;18.03;;
3625;SDS011;1827;50.534;8.316;2023-02-15T11:43:07;50.47;;;17.90;;
3625;SDS011;1827;50.534;8.316;2023-02-15T11:46:00;48.03;;;19.90;;
3625;SDS011;1827;50.534;8.316;2023-02-15T11:48:29;48.17;;;19.03;;
3625;SDS011;1827;50.534;8.316;2023-02-15T11:50:57;45.80;;;19.07;;
3625;SDS011;1827;50.534;8.316;2023-02-15T11:53:28;47.23;;;19.83;;
3625;SDS011;1827;50.534;8.316;2023-02-15T11:56:00;47.10;;;19.10;;
3625;SDS011;1827;50.534;8.316;2023-02-15T11:58:32;45.17;;;18.30;;
3625;SDS011;1827;50.534;8.316;2023-02-15T12:03:45;47.47;;;18.90;;
3625;SDS011;1827;50.534;8.316;2023-02-15T12:11:36;48.73;;;20.73;;
3625;SDS011;1827;50.534;8.316;2023-02-15T12:14:07;48.30;;;19.60;;
3625;SDS011;1827;50.534;8.316;2023-02-15T12:16:50;49.57;;;20.37;;
3625;SDS011;1827;50.534;8.316;2023-02-15T12:21:53;52.23;;;21.23;;
3625;SDS011;1827;50.534;8.316;2023-02-15T12:24:29;46.97;;;19.63;;
3625;SDS011;1827;50.534;8.316;2023-02-15T12:27:05;49.37;;;21.43;;
3625;SDS011;1827;50.534;8.316;2023-02-15T12:29:51;48.40;;;20.20;;
3625;SDS011;1827;50.534;8.316;2023-02-15T12:32:46;51.07;;;20.73;;
3625;SDS011;1827;50.534;8.316;2023-02-15T12:35:18;58.13;;;21.40;;
3625;SDS011;1827;50.534;8.316;2023-02-15T12:38:20;49.47;;;20.63;;
3625;SDS011;1827;50.534;8.316;2023-02-15T12:41:02;56.63;;;21.73;;
3625;SDS011;1827;50.534;8.316;2023-02-15T12:46:57;50.00;;;19.30;;
3625;SDS011;1827;50.534;8.316;2023-02-15T12:49:28;52.73;;;20.17;;
3625;SDS011;1827;50.534;8.316;2023-02-15T12:52:03;51.83;;;21.50;;
3625;SDS011;1827;50.534;8.316;2023-02-15T12:54:38;50.33;;;19.37;;
3625;SDS011;1827;50.534;8.316;2023-02-15T13:02:49;49.63;;;21.53;;
3625;SDS011;1827;50.534;8.316;2023-02-15T13:05:39;54.43;;;21.50;;
3625;SDS011;1827;50.534;8.316;2023-02-15T13:08:16;58.83;;;23.47;;
3625;SDS011;1827;50.534;8.316;2023-02-15T13:11:21;61.17;;;23.97;;
3625;SDS011;1827;50.534;8.316;2023-02-15T13:16:28;60.57;;;22.27;;
3625;SDS011;1827;50.534;8.316;2023-02-15T13:21:44;53.73;;;23.03;;
3625;SDS011;1827;50.534;8.316;2023-02-15T13:26:42;76.40;;;28.13;;
3625;SDS011;1827;50.534;8.316;2023-02-15T13:29:22;64.57;;;27.17;;
3625;SDS011;1827;50.534;8.316;2023-02-15T13:31:54;53.00;;;21.73;;
3625;SDS011;1827;50.534;8.316;2023-02-15T13:34:30;63.97;;;26.67;;
3625;SDS011;1827;50.534;8.316;2023-02-15T13:40:01;63.00;;;26.23;;
3625;SDS011;1827;50.534;8.316;2023-02-15T13:42:45;61.23;;;25.70;;
3625;SDS011;1827;50.534;8.316;2023-02-15T13:54:05;64.20;;;26.10;;
3625;SDS011;1827;50.534;8.316;2023-02-15T13:57:01;59.93;;;23.83;;
3625;SDS011;1827;50.534;8.316;2023-02-15T13:59:47;65.20;;;25.83;;
3625;SDS011;1827;50.534;8.316;2023-02-15T14:02:49;74.67;;;31.37;;
3625;SDS011;1827;50.534;8.316;2023-02-15T14:05:45;62.13;;;25.53;;
3625;SDS011;1827;50.534;8.316;2023-02-15T14:11:17;65.57;;;27.07;;
3625;SDS011;1827;50.534;8.316;2023-02-15T14:14:37;64.20;;;26.97;;
3625;SDS011;1827;50.534;8.316;2023-02-15T14:17:35;66.57;;;28.33;;
3625;SDS011;1827;50.534;8.316;2023-02-15T14:20:36;58.97;;;25.30;;
3625;SDS011;1827;50.534;8.316;2023-02-15T14:26:30;62.83;;;27.20;;
3625;SDS011;1827;50.534;8.316;2023-02-15T14:31:54;57.53;;;24.40;;
3625;SDS011;1827;50.534;8.316;2023-02-15T14:34:45;62.30;;;28.03;;
3625;SDS011;1827;50.534;8.316;2023-02-15T14:37:16;65.73;;;27.60;;
3625;SDS011;1827;50.534;8.316;2023-02-15T14:40:30;68.50;;;27.70;;
3625;SDS011;1827;50.534;8.316;2023-02-15T14:43:24;70.50;;;29.23;;
3625;SDS011;1827;50.534;8.316;2023-02-15T14:46:21;68.80;;;28.87;;
3625;SDS011;1827;50.534;8.316;2023-02-15T14:49:48;66.17;;;28.43;;
3625;SDS011;1827;50.534;8.316;2023-02-15T14:51:59;66.17;;;28.77;;
3625;SDS011;1827;50.534;8.316;2023-02-15T14:59:45;70.47;;;30.50;;
3625;SDS011;1827;50.534;8.316;2023-02-15T15:05:15;75.23;;;30.07;;
3625;SDS011;1827;50.534;8.316;2023-02-15T15:07:57;75.03;;;30.10;;
3625;SDS011;1827;50.534;8.316;2023-02-15T15:10:37;74.43;;;30.23;;
3625;SDS011;1827;50.534;8.316;2023-02-15T15:13:34;70.07;;;29.47;;
3625;SDS011;1827;50.534;8.316;2023-02-15T15:18:50;71.63;;;30.00;;
3625;SDS011;1827;50.534;8.316;2023-02-15T15:43:29;83.03;;;32.70;;
3625;SDS011;1827;50.534;8.316;2023-02-15T15:46:19;74.73;;;29.53;;
3625;SDS011;1827;50.534;8.316;2023-02-15T15:49:09;71.40;;;31.00;;
3625;SDS011;1827;50.534;8.316;2023-02-15T15:51:42;87.90;;;38.73;;
3625;SDS011;1827;50.534;8.316;2023-02-15T15:54:18;78.07;;;33.57;;
3625;SDS011;1827;50.534;8.316;2023-02-15T15:57:00;88.93;;;34.90;;
3625;SDS011;1827;50.534;8.316;2023-02-15T15:59:33;83.67;;;36.10;;
3625;SDS011;1827;50.534;8.316;2023-02-15T16:02:09;78.73;;;33.30;;
3625;SDS011;1827;50.534;8.316;2023-02-15T16:04:40;92.37;;;38.33;;
3625;SDS011;1827;50.534;8.316;2023-02-15T16:07:14;79.43;;;34.17;;
3625;SDS011;1827;50.534;8.316;2023-02-15T16:12:34;90.53;;;36.30;;
3625;SDS011;1827;50.534;8.316;2023-02-15T16:15:25;82.40;;;34.97;;
3625;SDS011;1827;50.534;8.316;2023-02-15T16:18:00;76.77;;;31.80;;
3625;SDS011;1827;50.534;8.316;2023-02-15T16:20:31;76.63;;;31.73;;
3625;SDS011;1827;50.534;8.316;2023-02-15T16:29:15;80.00;;;31.03;;
3625;SDS011;1827;50.534;8.316;2023-02-15T16:31:42;87.83;;;30.97;;
3625;SDS011;1827;50.534;8.316;2023-02-15T16:34:18;79.97;;;32.30;;
3625;SDS011;1827;50.534;8.316;2023-02-15T16:36:43;80.17;;;29.80;;
3625;SDS011;1827;50.534;8.316;2023-02-15T16:39:12;75.07;;;30.70;;
3625;SDS011;1827;50.534;8.316;2023-02-15T16:41:43;83.57;;;35.50;;
3625;SDS011;1827;50.534;8.316;2023-02-15T16:44:18;76.90;;;30.80;;
3625;SDS011;1827;50.534;8.316;2023-02-15T16:46:51;85.00;;;29.90;;
3625;SDS011;1827;50.534;8.316;2023-02-15T16:49:26;83.80;;;31.17;;
3625;SDS011;1827;50.534;8.316;2023-02-15T16:52:01;85.53;;;29.93;;
3625;SDS011;1827;50.534;8.316;2023-02-15T16:54:34;78.40;;;32.43;;
3625;SDS011;1827;50.534;8.316;2023-02-15T16:57:01;90.30;;;37.47;;
3625;SDS011;1827;50.534;8.316;2023-02-15T16:59:31;83.60;;;35.40;;
3625;SDS011;1827;50.534;8.316;2023-02-15T17:07:48;86.60;;;32.50;;
3625;SDS011;1827;50.534;8.316;2023-02-15T17:10:31;80.80;;;30.47;;
3625;SDS011;1827;50.534;8.316;2023-02-15T17:13:04;87.10;;;32.03;;
3625;SDS011;1827;50.534;8.316;2023-02-15T17:15:40;78.83;;;31.80;;
3625;SDS011;1827;50.534;8.316;2023-02-15T17:21:08;79.33;;;30.60;;
3625;SDS011;1827;50.534;8.316;2023-02-15T17:23:40;74.70;;;30.90;;
3625;SDS011;1827;50.534;8.316;2023-02-15T17:26:14;73.00;;;29.40;;
3625;SDS011;1827;50.534;8.316;2023-02-15T17:28:49;82.43;;;31.47;;
3625;SDS011;1827;50.534;8.316;2023-02-15T17:31:26;78.70;;;30.40;;
3625;SDS011;1827;50.534;8.316;2023-02-15T17:33:58;82.17;;;29.67;;
3625;SDS011;1827;50.534;8.316;2023-02-15T17:36:27;73.57;;;28.53;;
3625;SDS011;1827;50.534;8.316;2023-02-15T17:43:48;86.17;;;30.77;;
3625;SDS011;1827;50.534;8.316;2023-02-15T17:46:14;79.30;;;29.40;;
3625;SDS011;1827;50.534;8.316;2023-02-15T17:48:45;74.40;;;29.10;;
3625;SDS011;1827;50.534;8.316;2023-02-15T17:51:12;83.40;;;30.60;;
3625;SDS011;1827;50.534;8.316;2023-02-15T17:53:41;74.10;;;28.30;;
3625;SDS011;1827;50.534;8.316;2023-02-15T17:56:32;79.53;;;29.70;;
3625;SDS011;1827;50.534;8.316;2023-02-15T17:59:03;92.20;;;29.97;;
3625;SDS011;1827;50.534;8.316;2023-02-15T18:01:34;95.17;;;34.97;;
3625;SDS011;1827;50.534;8.316;2023-02-15T18:04:19;88.43;;;33.77;;
3625;SDS011;1827;50.534;8.316;2023-02-15T18:07:07;83.97;;;30.80;;
3625;SDS011;1827;50.534;8.316;2023-02-15T18:09:56;91.90;;;33.20;;
3625;SDS011;1827;50.534;8.316;2023-02-15T18:12:42;78.97;;;29.20;;
3625;SDS011;1827;50.534;8.316;2023-02-15T18:15:10;72.07;;;28.77;;
3625;SDS011;1827;50.534;8.316;2023-02-15T18:17:44;84.67;;;30.63;;
3625;SDS011;1827;50.534;8.316;2023-02-15T18:22:43;81.87;;;31.63;;
3625;SDS011;1827;50.534;8.316;2023-02-15T18:25:15;79.70;;;30.00;;
3625;SDS011;1827;50.534;8.316;2023-02-15T18:27:43;84.63;;;33.63;;
3625;SDS011;1827;50.534;8.316;2023-02-15T18:30:15;85.90;;;31.40;;
3625;SDS011;1827;50.534;8.316;2023-02-15T18:32:48;86.40;;;31.30;;
3625;SDS011;1827;50.534;8.316;2023-02-15T18:35:18;84.90;;;31.50;;
3625;SDS011;1827;50.534;8.316;2023-02-15T18:37:46;83.40;;;31.53;;
3625;SDS011;1827;50.534;8.316;2023-02-15T18:40:18;84.27;;;31.73;;
3625;SDS011;1827;50.534;8.316;2023-02-15T18:42:46;96.77;;;32.80;;
3625;SDS011;1827;50.534;8.316;2023-02-15T18:45:18;88.47;;;32.30;;
3625;SDS011;1827;50.534;8.316;2023-02-15T18:47:54;86.00;;;33.07;;
3625;SDS011;1827;50.534;8.316;2023-02-15T18:50:20;95.57;;;35.10;;
3625;SDS011;1827;50.534;8.316;2023-02-15T18:52:47;93.33;;;33.17;;